createdAt,value
2022-12-01T00:01:19.795Z,11.03
2022-12-01T00:03:46.967Z,9.63
2022-12-01T00:06:17.896Z,11.30
2022-12-01T00:09:06.747Z,12.23
2022-12-01T00:11:35.778Z,11.00
2022-12-01T00:14:03.124Z,11.67
2022-12-01T00:16:30.803Z,11.77
2022-12-01T00:18:57.863Z,12.10
2022-12-01T00:21:26.865Z,10.33
2022-12-01T00:23:56.554Z,12.17
2022-12-01T00:26:25.367Z,12.03
2022-12-01T00:28:55.385Z,11.23
2022-12-01T00:31:23.408Z,11.10
2022-12-01T00:33:50.881Z,12.27
2022-12-01T00:36:17.767Z,12.60
2022-12-01T00:38:44.803Z,13.03
2022-12-01T00:41:11.677Z,12.90
2022-12-01T00:43:39.719Z,12.43
2022-12-01T00:46:06.651Z,14.57
2022-12-01T00:48:33.802Z,14.17
2022-12-01T00:51:00.832Z,13.70
2022-12-01T00:53:27.746Z,14.67
2022-12-01T00:55:54.744Z,12.90
2022-12-01T00:58:22.970Z,14.03
2022-12-01T01:00:57.211Z,12.70
2022-12-01T01:03:24.078Z,14.03
2022-12-01T01:05:50.962Z,14.47
2022-12-01T01:08:18.038Z,14.07
2022-12-01T01:10:47.712Z,14.43
2022-12-01T01:13:15.356Z,15.17
2022-12-01T01:15:42.458Z,14.40
2022-12-01T01:18:12.490Z,14.27
2022-12-01T01:20:39.509Z,15.40
2022-12-01T01:23:06.626Z,14.77
2022-12-01T01:25:33.942Z,13.90
2022-12-01T01:28:00.926Z,15.53
2022-12-01T01:30:28.396Z,15.03
2022-12-01T01:32:55.365Z,16.97
2022-12-01T01:35:22.249Z,15.60
2022-12-01T01:37:50.889Z,15.03
2022-12-01T01:40:18.672Z,14.77
2022-12-01T01:42:45.717Z,15.77
2022-12-01T01:45:29.563Z,16.50
2022-12-01T01:47:59.426Z,16.90
2022-12-01T01:50:28.833Z,16.53
2022-12-01T01:53:01.670Z,16.30
2022-12-01T01:55:32.103Z,16.90
2022-12-01T01:57:59.754Z,18.20
2022-12-01T02:00:26.749Z,18.37
2022-12-01T02:02:53.818Z,18.47
2022-12-01T02:05:31.162Z,16.40
2022-12-01T02:07:59.758Z,17.37
2022-12-01T02:10:47.664Z,17.97
2022-12-01T02:13:47.163Z,18.50
2022-12-01T02:16:39.486Z,18.10
2022-12-01T02:19:50.026Z,18.10
2022-12-01T02:23:02.100Z,17.53
2022-12-01T02:26:08.138Z,18.00
2022-12-01T02:29:06.099Z,17.43
2022-12-01T02:32:23.982Z,17.80
2022-12-01T02:35:06.863Z,18.70
2022-12-01T02:37:36.462Z,17.40
2022-12-01T02:40:23.930Z,17.87
2022-12-01T02:43:07.200Z,18.27
2022-12-01T02:45:45.598Z,18.07
2022-12-01T02:48:19.414Z,18.23
2022-12-01T02:50:46.853Z,18.60
2022-12-01T02:53:17.628Z,17.80
2022-12-01T02:55:54.722Z,19.70
2022-12-01T02:58:21.966Z,17.33
2022-12-01T03:01:07.206Z,17.87
2022-12-01T03:03:52.880Z,17.50
2022-12-01T03:06:43.194Z,17.10
2022-12-01T03:09:39.635Z,15.70
2022-12-01T03:12:50.019Z,17.83
2022-12-01T03:15:38.777Z,18.20
2022-12-01T03:18:34.849Z,18.00
2022-12-01T03:21:33.826Z,18.73
2022-12-01T03:24:10.746Z,16.30
2022-12-01T03:26:41.222Z,16.30
2022-12-01T03:29:20.796Z,18.73
2022-12-01T03:32:52.718Z,17.17
2022-12-01T03:35:30.958Z,18.03
2022-12-01T03:38:04.574Z,17.57
2022-12-01T03:40:36.685Z,16.50
2022-12-01T03:43:09.796Z,16.80
2022-12-01T03:46:08.086Z,14.97
2022-12-01T03:48:35.237Z,14.33
2022-12-01T03:51:16.391Z,14.43
2022-12-01T03:53:57.170Z,11.73
2022-12-01T03:56:30.702Z,12.13
2022-12-01T03:59:00.380Z,13.00
2022-12-01T04:01:32.876Z,10.83
2022-12-01T04:04:10.501Z,13.13
2022-12-01T04:06:38.398Z,12.10
2022-12-01T04:09:05.378Z,12.53
2022-12-01T04:11:50.677Z,12.67
2022-12-01T04:14:17.620Z,12.13
2022-12-01T04:16:44.624Z,12.17
2022-12-01T04:19:11.847Z,12.03
2022-12-01T04:21:38.808Z,12.67
2022-12-01T04:24:06.130Z,11.83
2022-12-01T04:26:36.525Z,10.43
2022-12-01T04:29:10.539Z,10.93
2022-12-01T04:31:37.913Z,12.40
2022-12-01T04:34:05.751Z,13.30
2022-12-01T04:36:35.198Z,12.50
2022-12-01T04:39:03.171Z,13.23
2022-12-01T04:41:30.105Z,13.30
2022-12-01T04:43:57.044Z,12.80
2022-12-01T04:46:25.084Z,12.83
2022-12-01T04:48:52.417Z,12.23
2022-12-01T04:51:19.532Z,12.87
2022-12-01T04:53:46.495Z,13.50
2022-12-01T04:56:13.553Z,13.93
2022-12-01T04:58:40.686Z,13.30
2022-12-01T05:01:11.681Z,12.93
2022-12-01T05:03:41.425Z,14.30
2022-12-01T05:06:13.445Z,14.63
2022-12-01T05:08:41.407Z,12.53
2022-12-01T05:11:11.857Z,14.23
2022-12-01T05:13:40.224Z,13.50
2022-12-01T05:16:19.708Z,12.40
2022-12-01T05:19:18.198Z,11.77
2022-12-01T05:21:47.338Z,12.57
2022-12-01T05:24:15.182Z,11.37
2022-12-01T05:26:43.376Z,12.70
2022-12-01T05:29:11.091Z,12.10
2022-12-01T05:31:39.694Z,11.60
2022-12-01T05:34:07.878Z,10.63
2022-12-01T05:36:34.953Z,10.73
2022-12-01T05:39:01.862Z,11.07
2022-12-01T05:41:28.781Z,10.87
2022-12-01T05:43:55.761Z,10.67
2022-12-01T05:46:22.838Z,10.93
2022-12-01T05:48:49.870Z,10.23
2022-12-01T05:51:17.625Z,11.40
2022-12-01T05:53:45.073Z,11.23
2022-12-01T05:56:12.333Z,11.13
2022-12-01T05:58:39.298Z,10.53
2022-12-01T06:01:06.554Z,10.67
2022-12-01T06:03:33.671Z,10.27
2022-12-01T06:06:00.883Z,10.47
2022-12-01T06:08:28.111Z,10.67
2022-12-01T06:10:55.030Z,10.10
2022-12-01T06:13:21.892Z,10.50
2022-12-01T06:15:59.316Z,10.17
2022-12-01T06:18:27.546Z,9.47
2022-12-01T06:20:54.476Z,10.90
2022-12-01T06:23:22.713Z,11.67
2022-12-01T06:25:51.209Z,10.63
2022-12-01T06:28:18.389Z,12.10
2022-12-01T06:30:45.581Z,11.63
2022-12-01T06:33:12.594Z,11.13
2022-12-01T06:35:39.617Z,11.07
2022-12-01T06:38:06.564Z,9.87
2022-12-01T06:40:33.576Z,11.20
2022-12-01T06:43:05.605Z,10.90
2022-12-01T06:45:32.704Z,10.17
2022-12-01T06:47:59.640Z,10.70
2022-12-01T06:50:26.557Z,10.17
2022-12-01T06:52:54.915Z,11.73
2022-12-01T06:55:22.052Z,11.40
2022-12-01T06:57:49.403Z,10.77
2022-12-01T07:00:16.858Z,11.30
2022-12-01T07:02:44.334Z,12.40
2022-12-01T07:05:11.310Z,12.30
2022-12-01T07:07:39.586Z,11.03
2022-12-01T07:10:08.245Z,11.80
2022-12-01T07:12:35.304Z,11.07
2022-12-01T07:15:02.434Z,12.30
2022-12-01T07:17:29.867Z,11.50
2022-12-01T07:19:57.167Z,11.40
2022-12-01T07:22:29.474Z,12.13
2022-12-01T07:24:59.269Z,10.27
2022-12-01T07:27:30.702Z,12.23
2022-12-01T07:29:57.776Z,11.63
2022-12-01T07:32:24.762Z,11.10
2022-12-01T07:34:51.733Z,11.13
2022-12-01T07:37:18.688Z,11.60
2022-12-01T07:39:45.556Z,10.50
2022-12-01T07:42:12.612Z,11.93
2022-12-01T07:44:39.555Z,10.27
2022-12-01T07:47:06.677Z,11.03
2022-12-01T07:49:34.326Z,11.60
2022-12-01T07:52:01.392Z,10.67
2022-12-01T07:54:28.280Z,10.63
2022-12-01T07:56:55.125Z,10.60
2022-12-01T07:59:22.109Z,9.20
2022-12-01T08:01:49.071Z,10.50
2022-12-01T08:04:16.017Z,10.60
2022-12-01T08:06:43.002Z,10.17
2022-12-01T08:09:09.969Z,9.90
2022-12-01T08:11:36.981Z,9.63
2022-12-01T08:14:03.926Z,10.27
2022-12-01T08:16:31.416Z,10.50
2022-12-01T08:18:58.555Z,10.10
2022-12-01T08:21:25.734Z,9.80
2022-12-01T08:23:55.606Z,10.03
2022-12-01T08:26:24.992Z,9.33
2022-12-01T08:28:52.086Z,9.67
2022-12-01T08:31:29.718Z,9.73
2022-12-01T08:33:57.237Z,9.87
2022-12-01T08:36:25.292Z,7.87
2022-12-01T08:38:54.482Z,9.03
2022-12-01T08:41:22.515Z,8.00
2022-12-01T08:43:58.807Z,7.73
2022-12-01T08:46:29.558Z,9.40
2022-12-01T08:48:57.477Z,11.20
2022-12-01T08:51:24.789Z,11.07
2022-12-01T08:53:51.714Z,11.27
2022-12-01T08:56:31.238Z,11.10
2022-12-01T08:58:59.159Z,9.70
2022-12-01T09:01:28.657Z,10.70
2022-12-01T09:04:10.516Z,10.87
2022-12-01T09:06:43.507Z,11.70
2022-12-01T09:09:13.948Z,10.43
2022-12-01T09:11:43.616Z,9.83
2022-12-01T09:14:12.606Z,11.03
2022-12-01T09:16:40.753Z,9.60
2022-12-01T09:19:07.941Z,10.13
2022-12-01T09:21:37.357Z,10.23
2022-12-01T09:24:06.483Z,9.33
2022-12-01T09:26:34.281Z,12.30
2022-12-01T09:29:08.588Z,11.13
2022-12-01T09:31:36.285Z,11.57
2022-12-01T09:34:06.329Z,11.03
2022-12-01T09:36:35.581Z,12.83
2022-12-01T09:39:04.642Z,10.40
2022-12-01T09:41:44.565Z,11.13
2022-12-01T09:44:26.346Z,11.60
2022-12-01T09:47:29.150Z,11.40
2022-12-01T09:50:18.781Z,10.90
2022-12-01T09:52:54.425Z,11.30
2022-12-01T09:55:24.613Z,10.87
2022-12-01T09:57:55.706Z,10.50
2022-12-01T10:00:27.749Z,11.10
2022-12-01T10:03:09.768Z,10.30
2022-12-01T10:06:25.260Z,10.30
2022-12-01T10:08:52.711Z,11.90
2022-12-01T10:11:36.305Z,10.70
2022-12-01T10:14:04.625Z,11.27
2022-12-01T10:16:40.243Z,10.63
2022-12-01T10:19:32.906Z,11.50
2022-12-01T10:22:44.502Z,10.47
2022-12-01T10:25:21.975Z,11.30
2022-12-01T10:28:46.322Z,11.03
2022-12-01T10:31:19.200Z,10.97
2022-12-01T10:34:25.502Z,12.00
2022-12-01T10:36:52.504Z,10.30
2022-12-01T10:39:39.116Z,11.23
2022-12-01T10:42:47.234Z,10.97
2022-12-01T10:45:27.916Z,11.20
2022-12-01T10:48:22.576Z,12.47
2022-12-01T10:50:57.522Z,12.80
2022-12-01T10:53:25.247Z,11.30
2022-12-01T10:56:14.240Z,13.20
2022-12-01T10:58:54.693Z,11.93
2022-12-01T11:01:35.953Z,12.70
2022-12-01T11:04:06.076Z,11.43
2022-12-01T11:06:33.349Z,13.17
2022-12-01T11:09:07.195Z,12.33
2022-12-01T11:11:37.054Z,12.87
2022-12-01T11:14:17.585Z,12.17
2022-12-01T11:16:48.076Z,12.43
2022-12-01T11:19:34.582Z,12.20
2022-12-01T11:22:20.088Z,13.77
2022-12-01T11:24:53.191Z,11.70
2022-12-01T11:27:54.231Z,13.87
2022-12-01T11:30:27.600Z,13.27
2022-12-01T11:32:59.069Z,11.77
2022-12-01T11:35:36.761Z,12.63
2022-12-01T11:38:28.841Z,11.40
2022-12-01T11:40:55.589Z,11.77
2022-12-01T11:43:30.115Z,11.07
2022-12-01T11:46:04.773Z,11.27
2022-12-01T11:48:36.211Z,11.97
2022-12-01T11:51:08.188Z,11.97
2022-12-01T11:53:39.496Z,11.40
2022-12-01T11:56:28.724Z,10.40
2022-12-01T11:59:11.938Z,10.30
2022-12-01T12:02:07.131Z,10.90
2022-12-01T12:05:24.522Z,9.90
2022-12-01T12:08:23.025Z,10.00
2022-12-01T12:11:06.780Z,10.53
2022-12-01T12:14:10.018Z,10.53
2022-12-01T12:16:51.313Z,11.30
2022-12-01T12:19:52.246Z,10.90
2022-12-01T12:22:53.735Z,10.77
2022-12-01T12:25:56.289Z,10.93
2022-12-01T12:28:35.410Z,12.03
2022-12-01T12:31:02.260Z,11.07
2022-12-01T12:33:53.900Z,12.20
2022-12-01T12:36:38.641Z,11.50
2022-12-01T12:39:37.872Z,11.70
2022-12-01T12:42:20.085Z,11.63
2022-12-01T12:45:07.227Z,10.53
2022-12-01T12:48:07.362Z,10.10
2022-12-01T12:50:54.758Z,9.40
2022-12-01T12:53:28.228Z,10.97
2022-12-01T12:56:00.069Z,11.00
2022-12-01T12:58:37.827Z,11.40
2022-12-01T13:01:17.541Z,10.63
2022-12-01T13:03:53.271Z,11.80
2022-12-01T13:06:40.664Z,11.40
2022-12-01T13:09:27.950Z,11.80
2022-12-01T13:12:06.938Z,11.73
2022-12-01T13:14:44.070Z,11.10
2022-12-01T13:17:35.986Z,10.67
2022-12-01T13:20:05.859Z,11.57
2022-12-01T13:22:35.466Z,11.03
2022-12-01T13:25:04.446Z,11.10
2022-12-01T13:27:43.119Z,12.50
2022-12-01T13:30:24.294Z,11.70
2022-12-01T13:33:03.021Z,11.30
2022-12-01T13:35:40.042Z,11.50
2022-12-01T13:38:35.824Z,10.40
2022-12-01T13:41:30.523Z,10.63
2022-12-01T13:44:20.166Z,10.80
2022-12-01T13:46:47.124Z,11.50
2022-12-01T13:49:39.630Z,12.90
2022-12-01T13:52:21.882Z,12.13
2022-12-01T13:55:07.650Z,11.90
2022-12-01T13:57:57.130Z,12.30
2022-12-01T14:00:31.582Z,11.53
2022-12-01T14:03:16.653Z,12.17
2022-12-01T14:05:51.573Z,12.97
2022-12-01T14:08:31.550Z,11.10
2022-12-01T14:11:24.453Z,10.80
2022-12-01T14:14:11.668Z,11.90
2022-12-01T14:16:58.665Z,10.97
2022-12-01T14:19:35.970Z,11.23
2022-12-01T14:22:05.373Z,11.67
2022-12-01T14:24:38.491Z,12.50
2022-12-01T14:27:06.580Z,11.43
2022-12-01T14:29:44.711Z,11.87
2022-12-01T14:32:17.564Z,12.27
2022-12-01T14:34:44.925Z,11.80
2022-12-01T14:37:18.999Z,11.17
2022-12-01T14:40:07.861Z,11.93
2022-12-01T14:43:03.487Z,10.97
2022-12-01T14:45:43.070Z,11.50
2022-12-01T14:48:14.328Z,12.80
2022-12-01T14:50:58.706Z,12.60
2022-12-01T14:53:40.742Z,11.83
2022-12-01T14:56:17.840Z,10.43
2022-12-01T14:58:59.845Z,9.77
2022-12-01T15:01:37.230Z,10.50
2022-12-01T15:04:06.655Z,10.20
2022-12-01T15:06:35.919Z,9.70
2022-12-01T15:12:07.610Z,10.40
2022-12-01T15:14:47.850Z,10.97
2022-12-01T15:17:34.507Z,9.93
2022-12-01T15:20:02.005Z,10.50
2022-12-01T15:22:31.826Z,11.80
2022-12-01T15:25:15.575Z,11.70
2022-12-01T15:27:45.677Z,10.27
2022-12-01T15:30:16.822Z,12.80
2022-12-01T15:32:45.804Z,11.60
2022-12-01T15:35:23.589Z,12.60
2022-12-01T15:37:52.654Z,11.00
2022-12-01T15:41:00.144Z,11.33
2022-12-01T15:43:24.874Z,12.30
2022-12-01T15:45:55.851Z,11.67
2022-12-01T15:48:35.392Z,11.00
2022-12-01T15:51:18.237Z,11.47
2022-12-01T15:53:53.802Z,11.90
2022-12-01T15:56:52.047Z,10.43
2022-12-01T15:59:41.715Z,11.53
2022-12-01T16:02:33.223Z,12.80
2022-12-01T16:05:09.395Z,13.40
2022-12-01T16:08:12.194Z,12.20
2022-12-01T16:10:36.046Z,11.50
2022-12-01T16:13:46.916Z,12.63
2022-12-01T16:16:45.286Z,12.10
2022-12-01T16:19:12.109Z,12.00
2022-12-01T16:22:11.381Z,13.40
2022-12-01T16:24:49.165Z,12.47
2022-12-01T16:27:28.856Z,12.30
2022-12-01T16:30:06.348Z,13.07
2022-12-01T16:32:38.981Z,14.30
2022-12-01T16:35:30.525Z,14.20
2022-12-01T16:37:58.541Z,13.00
2022-12-01T16:40:26.181Z,13.30
2022-12-01T16:42:53.199Z,14.30
2022-12-01T16:45:21.144Z,14.37
2022-12-01T16:47:49.994Z,14.57
2022-12-01T16:50:19.757Z,14.60
2022-12-01T16:52:47.003Z,15.30
2022-12-01T16:55:29.506Z,14.43
2022-12-01T16:57:56.691Z,15.63
2022-12-01T17:00:24.062Z,15.70
2022-12-01T17:02:52.655Z,15.43
2022-12-01T17:05:20.057Z,16.73
2022-12-01T17:07:47.582Z,17.53
2022-12-01T17:10:15.107Z,16.27
2022-12-01T17:12:42.180Z,17.30
2022-12-01T17:15:10.294Z,16.10
2022-12-01T17:17:37.320Z,16.17
2022-12-01T17:20:06.792Z,17.70
2022-12-01T17:22:34.906Z,14.70
2022-12-01T17:25:02.546Z,16.23
2022-12-01T17:27:31.403Z,16.27
2022-12-01T17:29:59.788Z,16.07
2022-12-01T17:32:27.671Z,17.63
2022-12-01T17:34:54.856Z,16.90
2022-12-01T17:37:22.065Z,17.03
2022-12-01T17:39:50.500Z,16.73
2022-12-01T17:42:17.440Z,17.10
2022-12-01T17:44:44.724Z,16.80
2022-12-01T17:47:12.232Z,16.23
2022-12-01T17:49:39.234Z,17.00
2022-12-01T17:52:07.083Z,17.57
2022-12-01T17:54:34.418Z,16.37
2022-12-01T17:57:01.410Z,17.90
2022-12-01T17:59:28.321Z,16.13
2022-12-01T18:01:55.488Z,16.40
2022-12-01T18:04:22.414Z,17.37
2022-12-01T18:06:53.740Z,16.57
2022-12-01T18:09:21.660Z,16.70
2022-12-01T18:11:49.148Z,15.90
2022-12-01T18:14:19.203Z,17.60
2022-12-01T18:16:46.149Z,16.40
2022-12-01T18:19:13.483Z,16.73
2022-12-01T18:21:41.098Z,17.40
2022-12-01T18:24:09.234Z,17.40
2022-12-01T18:26:39.918Z,16.33
2022-12-01T18:29:18.465Z,17.13
2022-12-01T18:31:47.220Z,16.73
2022-12-01T18:34:14.209Z,18.13
2022-12-01T18:36:41.966Z,18.00
2022-12-01T18:39:11.083Z,16.20
2022-12-01T18:41:38.336Z,15.90
2022-12-01T18:44:05.643Z,15.77
2022-12-01T18:46:33.047Z,16.30
2022-12-01T18:49:03.110Z,16.97
2022-12-01T18:51:35.252Z,16.20
2022-12-01T18:54:04.450Z,16.60
2022-12-01T18:56:32.282Z,16.33
2022-12-01T18:59:02.664Z,16.30
2022-12-01T19:01:37.292Z,17.13
2022-12-01T19:04:05.828Z,17.50
2022-12-01T19:06:35.541Z,16.87
2022-12-01T19:09:05.303Z,17.50
2022-12-01T19:11:33.237Z,16.50
2022-12-01T19:14:00.201Z,17.47
2022-12-01T19:16:27.234Z,17.10
2022-12-01T19:18:54.223Z,17.07
2022-12-01T19:21:21.319Z,18.20
2022-12-01T19:23:49.230Z,17.33
2022-12-01T19:26:20.487Z,17.63
2022-12-01T19:28:48.213Z,16.00
2022-12-01T19:31:23.482Z,17.03
2022-12-01T19:33:52.513Z,17.40
2022-12-01T19:36:23.658Z,18.07
2022-12-01T19:38:51.608Z,17.67
2022-12-01T19:41:20.806Z,16.87
2022-12-01T19:43:48.371Z,16.10
2022-12-01T19:46:19.254Z,15.90
2022-12-01T19:48:47.294Z,14.70
2022-12-01T19:51:24.575Z,16.70
2022-12-01T19:53:52.926Z,18.27
2022-12-01T19:56:20.301Z,16.00
2022-12-01T19:58:47.246Z,15.87
2022-12-01T20:01:16.527Z,15.80
2022-12-01T20:03:47.809Z,16.70
2022-12-01T20:06:19.457Z,17.43
2022-12-01T20:08:46.771Z,14.87
2022-12-01T20:11:14.485Z,18.03
2022-12-01T20:13:44.396Z,17.03
2022-12-01T20:16:22.299Z,16.10
2022-12-01T20:18:51.156Z,17.13
2022-12-01T20:21:20.580Z,18.00
2022-12-01T20:23:58.752Z,16.67
2022-12-01T20:26:38.946Z,15.20
2022-12-01T20:29:10.557Z,17.40
2022-12-01T20:31:38.750Z,17.13
2022-12-01T20:34:14.346Z,17.30
2022-12-01T20:36:41.238Z,17.97
2022-12-01T20:39:09.346Z,16.30
2022-12-01T20:41:36.897Z,18.00
2022-12-01T20:44:07.561Z,17.17
2022-12-01T20:46:36.409Z,17.93
2022-12-01T20:49:05.224Z,17.87
2022-12-01T20:51:33.394Z,17.87
2022-12-01T20:56:49.340Z,17.17
2022-12-01T20:59:16.264Z,17.50
2022-12-01T21:01:43.243Z,17.40
2022-12-01T21:04:10.278Z,17.07
2022-12-01T21:06:37.247Z,16.97
2022-12-01T21:09:05.126Z,17.67
2022-12-01T21:12:02.561Z,16.53
2022-12-01T21:14:45.326Z,17.67
2022-12-01T21:17:33.763Z,17.53
2022-12-01T21:20:33.796Z,16.30
2022-12-01T21:23:12.762Z,17.53
2022-12-01T21:25:41.492Z,18.10
2022-12-01T21:28:25.932Z,18.73
2022-12-01T21:31:15.575Z,17.30
2022-12-01T21:33:43.030Z,18.43
2022-12-01T21:36:17.065Z,18.07
2022-12-01T21:38:45.060Z,16.33
2022-12-01T21:41:26.782Z,19.70
2022-12-01T21:44:05.220Z,20.40
2022-12-01T21:46:32.248Z,17.93
2022-12-01T21:49:01.377Z,18.83
2022-12-01T21:51:28.678Z,18.17
2022-12-01T21:53:56.901Z,17.97
2022-12-01T21:56:28.896Z,18.33
2022-12-01T21:58:59.543Z,19.07
2022-12-01T22:01:32.767Z,19.10
2022-12-01T22:04:02.904Z,19.60
2022-12-01T22:06:40.433Z,19.23
2022-12-01T22:09:35.753Z,19.47
2022-12-01T22:12:28.083Z,18.07
2022-12-01T22:15:01.162Z,18.17
2022-12-01T22:17:29.043Z,18.30
2022-12-01T22:20:02.552Z,18.97
2022-12-01T22:22:30.615Z,19.47
2022-12-01T22:25:27.155Z,20.07
2022-12-01T22:27:54.534Z,18.43
2022-12-01T22:30:23.929Z,20.70
2022-12-01T22:33:00.890Z,18.70
2022-12-01T22:35:40.301Z,18.93
2022-12-01T22:38:07.177Z,18.63
2022-12-01T22:40:48.570Z,20.07
2022-12-01T22:43:18.431Z,18.57
2022-12-01T22:46:15.396Z,20.13
2022-12-01T22:48:57.685Z,17.57
2022-12-01T22:51:49.682Z,18.70
2022-12-01T22:54:16.475Z,20.47
2022-12-01T22:56:50.805Z,18.40
2022-12-01T22:59:37.701Z,17.57
2022-12-01T23:02:34.509Z,19.70
2022-12-01T23:05:27.790Z,18.47
2022-12-01T23:07:55.720Z,18.50
2022-12-01T23:10:34.102Z,16.77
2022-12-01T23:13:29.372Z,18.70
2022-12-01T23:15:56.718Z,18.30
2022-12-01T23:18:33.499Z,19.83
2022-12-01T23:21:01.933Z,20.13
2022-12-01T23:23:38.163Z,18.30
2022-12-01T23:26:08.118Z,20.03
2022-12-01T23:28:39.102Z,19.83
2022-12-01T23:31:06.138Z,20.10
2022-12-01T23:33:35.210Z,19.93
2022-12-01T23:36:24.601Z,18.07
2022-12-01T23:38:57.805Z,18.00
2022-12-01T23:41:41.262Z,18.90
2022-12-01T23:44:46.346Z,18.57
2022-12-01T23:47:29.291Z,20.20
2022-12-01T23:50:04.074Z,18.73
2022-12-01T23:52:35.797Z,18.90
2022-12-01T23:55:15.437Z,20.70
2022-12-01T23:57:43.094Z,19.27
